createdAt,value
2022-11-28T00:03:49.350Z,9.75
2022-11-28T00:08:53.223Z,10.77
2022-11-28T00:13:56.169Z,10.55
2022-11-28T00:18:59.930Z,9.18
2022-11-28T00:24:03.996Z,10.95
2022-11-28T00:29:06.969Z,8.63
2022-11-28T00:34:10.131Z,8.77
2022-11-28T00:39:14.321Z,10.10
2022-11-28T00:44:16.708Z,7.78
2022-11-28T00:49:19.108Z,10.77
2022-11-28T00:54:22.884Z,10.70
2022-11-28T00:59:25.315Z,10.23
2022-11-28T01:04:28.459Z,7.82
2022-11-28T01:09:32.212Z,8.50
2022-11-28T01:14:34.693Z,9.88
2022-11-28T01:19:37.111Z,9.60
2022-11-28T01:24:41.207Z,14.43
2022-11-28T01:29:43.684Z,9.45
2022-11-28T01:34:46.048Z,11.70
2022-11-28T01:39:49.708Z,13.00
2022-11-28T01:45:15.937Z,8.85
2022-11-28T01:50:18.809Z,9.60
2022-11-28T01:55:25.097Z,10.23
2022-11-28T02:00:27.578Z,13.27
2022-11-28T02:05:29.974Z,12.55
2022-11-28T02:10:38.042Z,12.32
2022-11-28T02:15:48.330Z,13.32
2022-11-28T02:21:24.938Z,12.75
2022-11-28T02:26:42.588Z,12.15
2022-11-28T02:32:08.650Z,12.45
2022-11-28T02:37:14.858Z,12.70
2022-11-28T02:42:19.336Z,12.43
2022-11-28T02:47:24.523Z,15.10
2022-11-28T02:52:30.325Z,16.58
2022-11-28T02:57:35.714Z,15.15
2022-11-28T03:02:38.417Z,15.05
2022-11-28T03:07:51.335Z,14.90
2022-11-28T03:12:59.027Z,15.68
2022-11-28T03:18:03.841Z,13.77
2022-11-28T03:23:13.069Z,14.55
2022-11-28T03:28:20.082Z,14.65
2022-11-28T03:33:23.903Z,14.57
2022-11-28T03:38:29.571Z,15.05
2022-11-28T03:43:33.843Z,20.05
2022-11-28T03:48:38.835Z,22.35
2022-11-28T03:53:45.263Z,23.10
2022-11-28T03:58:50.665Z,26.35
2022-11-28T04:03:55.075Z,25.98
2022-11-28T04:09:01.649Z,26.65
2022-11-28T04:14:05.970Z,25.42
2022-11-28T04:19:13.613Z,25.25
2022-11-28T04:24:20.042Z,27.92
2022-11-28T04:29:24.609Z,24.98
2022-11-28T04:34:27.678Z,24.92
2022-11-28T04:39:33.374Z,23.55
2022-11-28T04:44:39.315Z,25.35
2022-11-28T04:49:41.720Z,22.20
2022-11-28T04:54:49.121Z,20.95
2022-11-28T04:59:51.776Z,21.45
2022-11-28T05:04:55.695Z,23.50
2022-11-28T05:09:59.444Z,23.55
2022-11-28T05:15:01.797Z,23.00
2022-11-28T05:20:04.370Z,24.48
2022-11-28T05:25:08.544Z,28.63
2022-11-28T05:30:11.814Z,28.77
2022-11-28T05:35:14.207Z,29.75
2022-11-28T05:40:18.040Z,29.13
2022-11-28T05:45:20.413Z,31.08
2022-11-28T05:50:22.757Z,30.30
2022-11-28T05:55:26.429Z,29.10
2022-11-28T06:00:28.840Z,27.38
2022-11-28T06:05:44.223Z,36.17
2022-11-28T06:10:56.567Z,31.83
2022-11-28T06:15:58.883Z,27.45
2022-11-28T06:21:02.240Z,28.73
2022-11-28T06:26:07.229Z,33.75
2022-11-28T06:31:11.269Z,31.13
2022-11-28T06:36:14.649Z,35.55
2022-11-28T06:41:19.925Z,34.50
2022-11-28T06:46:22.348Z,32.05
2022-11-28T06:51:24.814Z,33.00
2022-11-28T06:56:28.578Z,34.13
2022-11-28T07:01:32.293Z,33.30
2022-11-28T07:06:35.800Z,33.05
2022-11-28T07:11:41.852Z,29.50
2022-11-28T07:16:44.292Z,35.10
2022-11-28T07:21:46.701Z,32.30
2022-11-28T07:26:50.397Z,35.88
2022-11-28T07:31:52.835Z,36.78
2022-11-28T07:36:55.230Z,33.72
2022-11-28T07:41:58.892Z,32.70
2022-11-28T07:47:01.425Z,32.67
2022-11-28T07:52:03.965Z,36.37
2022-11-28T07:57:12.042Z,35.42
2022-11-28T08:02:15.703Z,40.40
2022-11-28T08:07:18.238Z,37.80
2022-11-28T08:12:22.088Z,39.88
2022-11-28T08:17:24.447Z,37.30
2022-11-28T08:22:26.789Z,37.47
2022-11-28T08:27:30.515Z,36.17
2022-11-28T08:32:32.907Z,39.35
2022-11-28T08:37:35.348Z,37.85
2022-11-28T08:42:39.067Z,34.75
2022-11-28T08:47:41.420Z,32.38
2022-11-28T08:52:43.761Z,30.58
2022-11-28T08:57:47.481Z,31.38
2022-11-28T09:02:49.852Z,35.95
2022-11-28T09:07:55.088Z,32.58
2022-11-28T09:12:58.893Z,30.65
2022-11-28T09:18:01.461Z,32.92
2022-11-28T09:23:03.809Z,30.15
2022-11-28T09:28:07.794Z,29.17
2022-11-28T09:33:10.872Z,28.63
2022-11-28T09:38:13.199Z,30.23
2022-11-28T09:43:17.983Z,26.70
2022-11-28T09:48:24.064Z,27.33
2022-11-28T09:53:29.686Z,26.58
2022-11-28T09:58:37.285Z,25.30
2022-11-28T10:03:41.589Z,26.42
2022-11-28T10:08:50.760Z,27.40
2022-11-28T10:14:08.180Z,27.33
2022-11-28T10:19:31.622Z,25.30
2022-11-28T10:24:38.319Z,26.10
2022-11-28T10:29:45.960Z,27.08
2022-11-28T10:34:50.739Z,22.75
2022-11-28T10:39:53.156Z,25.73
2022-11-28T10:45:02.711Z,25.25
2022-11-28T10:50:08.004Z,21.65
2022-11-28T10:55:19.154Z,23.17
2022-11-28T11:00:23.065Z,23.20
2022-11-28T11:05:26.967Z,22.67
2022-11-28T11:10:31.537Z,25.75
2022-11-28T11:15:36.145Z,21.13
2022-11-28T11:20:39.607Z,25.17
2022-11-28T11:25:47.185Z,24.90
2022-11-28T11:30:58.940Z,21.95
2022-11-28T11:36:01.422Z,24.50
2022-11-28T11:41:19.549Z,19.33
2022-11-28T11:46:23.368Z,20.83
2022-11-28T11:51:27.242Z,17.80
2022-11-28T11:56:31.483Z,17.38
2022-11-28T12:01:36.043Z,17.42
2022-11-28T12:06:41.179Z,18.17
2022-11-28T12:11:47.077Z,15.70
2022-11-28T12:16:53.244Z,15.90
2022-11-28T12:22:00.878Z,14.57
2022-11-28T12:27:07.577Z,15.40
2022-11-28T12:32:18.831Z,15.60
2022-11-28T12:37:42.031Z,14.70
2022-11-28T12:42:57.670Z,16.52
2022-11-28T12:48:07.398Z,17.20
2022-11-28T12:53:34.076Z,17.48
2022-11-28T12:58:39.935Z,16.60
2022-11-28T13:03:56.462Z,14.95
2022-11-28T13:09:03.900Z,18.58
2022-11-28T13:14:08.891Z,17.00
2022-11-28T13:19:16.439Z,19.75
2022-11-28T13:24:23.706Z,20.55
2022-11-28T13:29:31.189Z,18.67
2022-11-28T13:34:35.490Z,21.15
2022-11-28T13:39:42.951Z,23.55
2022-11-28T13:44:50.070Z,24.50
2022-11-28T13:50:13.831Z,26.05
2022-11-28T13:55:31.070Z,29.00
2022-11-28T14:00:34.023Z,27.50
2022-11-28T14:05:39.012Z,30.80
2022-11-28T14:10:53.340Z,36.58
2022-11-28T14:16:02.844Z,31.58
2022-11-28T14:21:11.440Z,31.40
2022-11-28T14:26:15.490Z,34.97
2022-11-28T14:31:24.560Z,33.85
2022-11-28T14:36:29.893Z,38.67
2022-11-28T14:41:32.520Z,34.97
2022-11-28T14:46:35.143Z,31.77
2022-11-28T14:52:16.055Z,38.37
2022-11-28T14:57:24.036Z,35.70
2022-11-28T15:02:45.910Z,39.50
2022-11-28T15:07:55.309Z,35.03
2022-11-28T15:13:06.054Z,36.75
2022-11-28T15:18:11.906Z,34.60
2022-11-28T15:23:22.881Z,36.95
2022-11-28T15:28:28.554Z,38.15
2022-11-28T15:33:31.328Z,36.42
2022-11-28T15:38:33.716Z,41.53
2022-11-28T15:43:38.533Z,34.40
2022-11-28T15:48:48.696Z,35.35
2022-11-28T15:53:51.115Z,44.20
2022-11-28T15:58:54.925Z,43.63
2022-11-28T16:03:58.041Z,38.25
2022-11-28T16:09:03.902Z,43.95
2022-11-28T16:14:09.805Z,39.38
2022-11-28T16:19:21.209Z,44.08
2022-11-28T16:24:26.755Z,51.75
2022-11-28T16:29:34.715Z,43.78
2022-11-28T16:34:47.600Z,51.30
2022-11-28T16:39:59.459Z,53.00
2022-11-28T16:45:09.090Z,56.30
2022-11-28T16:50:22.165Z,56.15
2022-11-28T16:55:41.026Z,70.83
2022-11-28T17:00:45.544Z,81.53
2022-11-28T17:05:47.934Z,115.25
2022-11-28T17:10:50.321Z,60.30
2022-11-28T17:15:54.052Z,43.67
2022-11-28T17:20:56.453Z,74.47
2022-11-28T17:25:58.861Z,120.28
2022-11-28T17:31:02.597Z,61.08
2022-11-28T17:36:05.313Z,79.63
2022-11-28T17:41:10.278Z,69.57
2022-11-28T17:46:14.025Z,63.38
2022-11-28T17:51:16.860Z,56.67
2022-11-28T17:56:19.216Z,63.47
2022-11-28T18:01:24.954Z,62.80
2022-11-28T18:06:27.465Z,67.72
2022-11-28T18:11:29.869Z,64.70
2022-11-28T18:16:35.712Z,59.60
2022-11-28T18:21:38.101Z,77.10
2022-11-28T18:26:40.570Z,53.70
2022-11-28T18:31:44.337Z,75.32
2022-11-28T18:36:46.760Z,63.22
2022-11-28T18:41:49.152Z,63.25
2022-11-28T18:46:52.891Z,66.40
2022-11-28T18:51:56.142Z,58.17
2022-11-28T18:56:58.671Z,65.38
2022-11-28T19:02:02.471Z,71.47
2022-11-28T19:07:04.994Z,61.05
2022-11-28T19:12:07.731Z,55.03
2022-11-28T19:17:12.127Z,63.10
2022-11-28T19:22:14.469Z,75.15
2022-11-28T19:27:16.868Z,61.92
2022-11-28T19:32:20.637Z,63.30
2022-11-28T19:37:24.786Z,59.85
2022-11-28T19:42:27.111Z,60.40
2022-11-28T19:47:30.814Z,61.28
2022-11-28T19:52:33.243Z,89.95
2022-11-28T19:57:36.323Z,68.30
2022-11-28T20:02:40.092Z,78.20
2022-11-28T20:07:42.734Z,84.72
2022-11-28T20:12:45.199Z,62.40
2022-11-28T20:17:49.245Z,114.90
2022-11-28T20:22:51.663Z,66.75
2022-11-28T20:27:54.208Z,106.45
2022-11-28T20:32:57.956Z,107.70
2022-11-28T20:38:00.350Z,64.50
2022-11-28T20:43:02.705Z,91.18
2022-11-28T20:48:06.802Z,111.60
2022-11-28T20:53:09.201Z,92.63
2022-11-28T20:58:11.598Z,64.68
2022-11-28T21:03:15.312Z,76.97
2022-11-28T21:08:17.820Z,75.90
2022-11-28T21:13:20.226Z,66.63
2022-11-28T21:18:23.949Z,98.43
2022-11-28T21:23:26.360Z,103.70
2022-11-28T21:28:28.759Z,87.72
2022-11-28T21:33:32.504Z,87.00
2022-11-28T21:38:35.207Z,85.45
2022-11-28T21:43:37.582Z,91.40
2022-11-28T21:48:41.683Z,86.47
2022-11-28T21:53:44.084Z,98.20
2022-11-28T21:58:46.559Z,91.28
2022-11-28T22:03:50.445Z,93.63
2022-11-28T22:08:53.368Z,98.97
2022-11-28T22:13:55.725Z,115.28
2022-11-28T22:19:00.765Z,92.38
2022-11-28T22:24:03.197Z,122.88
2022-11-28T22:29:05.717Z,123.32
2022-11-28T22:34:10.403Z,94.97
2022-11-28T22:39:12.765Z,86.68
2022-11-28T22:44:15.101Z,83.78
2022-11-28T22:49:18.906Z,95.30
2022-11-28T22:54:21.251Z,77.50
2022-11-28T22:59:23.673Z,89.90
2022-11-28T23:04:27.442Z,98.90
2022-11-28T23:09:29.835Z,100.85
2022-11-28T23:14:32.189Z,93.50
2022-11-28T23:19:36.023Z,101.38
2022-11-28T23:24:38.382Z,94.15
2022-11-28T23:29:40.771Z,84.82
2022-11-28T23:34:44.609Z,92.82
2022-11-28T23:39:47.178Z,92.35
2022-11-28T23:44:49.522Z,93.35
2022-11-28T23:49:53.226Z,97.45
2022-11-28T23:54:55.564Z,110.68
